KMKE

General Mitchell International Airport

Milwaukee, Wisconsin, USA
KMKE 212320Z 2200/2306 14013KT P6SM FEW020 BKN150 FM221600 18015G23KT P6SM VCSH OVC045 FM221800 18014G22KT 4SM -SN OVC020 FM221900 18013G21KT 3SM -FZRA OVC015 FM222100 17011KT 1 1/2SM -SN OVC009 FM230300 16009KT 2SM RASN OVC006
Issued Valid From Valid To
Jan-21 @ 23:20 UTC
(an hour ago)
Jan-22 @ 00:00 UTC
(44 minutes ago)
Jan-23 @ 06:00 UTC
(-1 days ago)
Jan-22 @ 00:00 to Jan-22 @ 16:00
KMKE 212320Z 2200/2306 14013KT P6SM FEW020 BKN150
Wind Visibility Clouds
140° at 13 knots Greater than 6 miles
  • Few at 2,000' AGL
  • Broken at 15,000' AGL
From Jan-22 @ 16:00 to Jan-22 @ 18:00
FM221600 18015G23KT P6SM VCSH OVC045
Wind Visibility Clouds
180° at 15 knots
 Gusting to 23 knots
Greater than 6 miles
  • Overcast at 4,500' AGL
From Jan-22 @ 18:00 to Jan-22 @ 19:00
FM221800 18014G22KT 4SM -SN OVC020
Wind Visibility Clouds Conditions
180° at 14 knots
 Gusting to 22 knots
4 miles
  • Overcast at 2,000' AGL
  • Light Snow
From Jan-22 @ 19:00 to Jan-22 @ 21:00
FM221900 18013G21KT 3SM -FZRA OVC015
Wind Visibility Clouds Conditions
180° at 13 knots
 Gusting to 21 knots
3 miles
  • Overcast at 1,500' AGL
  • Light Freezing
  • Light Rain
From Jan-22 @ 21:00 to Jan-23 @ 03:00
FM222100 17011KT 1 1/2SM -SN OVC009
Wind Visibility Clouds Conditions
170° at 11 knots 1 1/2 miles
  • Overcast at 900' AGL
  • Light Snow
From Jan-23 @ 03:00 to Jan-23 @ 06:00
FM230300 16009KT 2SM RASN OVC006
Wind Visibility Clouds Conditions
160° at 9 knots 2 miles
  • Overcast at 600' AGL
  • Rain
  • Snow
KMKE 212320Z 2200/2306 14013KT P6SM FEW020 BKN150 FM221600 18015G23KT P6SM VCSH OVC045 FM221800 18014G22KT 4SM -SN OVC020 FM221900 18013G21KT 3SM -FZRA OVC015 FM222100 17011KT 1 1/2SM -SN OVC009 FM230300 16009KT 2SM RASN OVC006
Issued Jan-21 @ 23:20 UTC
(an hour ago)
Valid From Jan-22 @ 00:00 UTC
(44 minutes ago)
Valid To Jan-23 @ 06:00 UTC
(-1 days ago)
Jan-22 @ 00:00 - Jan-22 @ 16:00
Wind Visibility
140° at 13 knots Greater than 6 miles
Clouds
  • Few at 2,000' AGL
  • Broken at 15,000' AGL
From Jan-22 @ 16:00 - Jan-22 @ 18:00
Wind Visibility
180° at 15 knots
 Gusting to 23 knots
Greater than 6 miles
Clouds
  • Overcast at 4,500' AGL
From Jan-22 @ 18:00 - Jan-22 @ 19:00
Wind Visibility
180° at 14 knots
 Gusting to 22 knots
4 miles
Clouds
  • Overcast at 2,000' AGL
Conditions
  • Light Snow
From Jan-22 @ 19:00 - Jan-22 @ 21:00
Wind Visibility
180° at 13 knots
 Gusting to 21 knots
3 miles
Clouds
  • Overcast at 1,500' AGL
Conditions
  • Light Freezing
  • Light Rain
From Jan-22 @ 21:00 - Jan-23 @ 03:00
Wind Visibility
170° at 11 knots 1 1/2 miles
Clouds
  • Overcast at 900' AGL
Conditions
  • Light Snow
From Jan-23 @ 03:00 - Jan-23 @ 06:00
Wind Visibility
160° at 9 knots 2 miles
Clouds
  • Overcast at 600' AGL
Conditions
  • Rain
  • Snow